Time;durP1;ratioP1;P1;durP2;ratioP2;P2;SDS_P1;SDS_P2;PMS_P1;PMS_P2;Temp;Humidity;BMP_temperature;BMP_pressure;BME280_temperature;BME280_humidity;BME280_pressure;Samples;Min_cycle;Max_cycle;Signal;HPM_P1;HPM_P2
2023/09/19 00:00:20;;;;;;;1.50;1.00;;;16.80;98.20;;;;;;4929392;29;20970;-84
2023/09/19 00:02:52;;;;;;;1.50;0.90;;;16.80;98.20;;;;;;4933779;28;20489;-85
2023/09/19 00:05:23;;;;;;;1.50;1.00;;;16.80;98.20;;;;;;4931599;29;20481;-86
2023/09/19 00:07:51;;;;;;;1.50;1.00;;;16.80;98.20;;;;;;4936748;28;20621;-86
2023/09/19 00:10:19;;;;;;;1.50;1.00;;;16.80;98.20;;;;;;4932974;29;20499;-86
2023/09/19 00:12:45;;;;;;;1.50;1.00;;;16.80;98.20;;;;;;4936252;28;21053;-85
2023/09/19 00:15:12;;;;;;;1.50;1.00;;;16.70;98.20;;;;;;4928924;29;20478;-86
2023/09/19 00:17:41;;;;;;;1.50;0.90;;;16.70;98.20;;;;;;4928208;28;20489;-85
2023/09/19 00:20:12;;;;;;;1.50;1.00;;;16.70;98.20;;;;;;4933567;29;20464;-85
2023/09/19 00:22:40;;;;;;;1.50;1.00;;;16.70;98.20;;;;;;4938686;28;20844;-84
2023/09/19 00:25:08;;;;;;;1.50;1.00;;;16.60;98.20;;;;;;4936125;29;20472;-85
2023/09/19 00:27:35;;;;;;;1.50;0.90;;;16.60;98.20;;;;;;4938243;28;20494;-83
2023/09/19 00:30:04;;;;;;;1.50;1.00;;;16.60;98.20;;;;;;4935924;29;20468;-87
2023/09/19 00:32:33;;;;;;;1.50;0.93;;;16.60;98.20;;;;;;4930353;29;20550;-86
2023/09/19 00:35:01;;;;;;;1.83;1.57;;;16.60;98.20;;;;;;4931724;29;20515;-83
2023/09/19 00:37:28;;;;;;;1.50;1.00;;;16.60;98.20;;;;;;4936964;28;20493;-84
2023/09/19 00:39:54;;;;;;;1.50;1.00;;;16.60;98.20;;;;;;4934797;29;20467;-83
2023/09/19 00:42:21;;;;;;;1.50;1.00;;;16.60;98.20;;;;;;4932749;28;20931;-82
2023/09/19 00:44:51;;;;;;;1.50;1.00;;;16.60;98.20;;;;;;4934419;28;20475;-83
2023/09/19 00:47:18;;;;;;;1.50;1.00;;;16.60;98.20;;;;;;4933262;29;20569;-82
2023/09/19 00:49:45;;;;;;;1.50;1.00;;;16.60;98.20;;;;;;4937375;29;20470;-83
2023/09/19 00:52:13;;;;;;;1.50;1.00;;;16.70;98.20;;;;;;4933468;28;21087;-83
2023/09/19 00:54:40;;;;;;;1.50;1.00;;;16.60;98.20;;;;;;4938401;28;20492;-82
2023/09/19 00:57:07;;;;;;;1.50;1.00;;;16.60;98.20;;;;;;4935451;28;20482;-83
2023/09/19 00:59:35;;;;;;;1.50;1.00;;;16.60;98.20;;;;;;4937452;28;20535;-82
2023/09/19 01:02:03;;;;;;;1.50;1.00;;;16.60;98.20;;;;;;4933194;28;20570;-83
2023/09/19 01:04:30;;;;;;;1.50;1.00;;;16.60;98.20;;;;;;4937607;28;20464;-83
2023/09/19 01:06:58;;;;;;;1.50;1.10;;;16.60;98.20;;;;;;4934305;28;20502;-83
2023/09/19 01:09:27;;;;;;;1.50;1.00;;;16.60;98.20;;;;;;4939732;28;20614;-84
2023/09/19 01:12:01;;;;;;;1.50;1.00;;;16.60;98.20;;;;;;4932055;28;21035;-82
2023/09/19 01:14:37;;;;;;;1.50;1.00;;;16.60;98.20;;;;;;4939412;28;20492;-83
2023/09/19 01:17:10;;;;;;;1.50;1.10;;;16.60;98.20;;;;;;4929928;29;20482;-82
2023/09/19 01:20:16;;;;;;;1.50;1.00;;;16.60;98.20;;;;;;4936842;29;20464;-83
2023/09/19 01:22:57;;;;;;;1.50;1.00;;;16.60;98.20;;;;;;4934773;29;20545;-84
2023/09/19 01:26:05;;;;;;;1.50;1.10;;;16.60;98.20;;;;;;4932314;29;20472;-83
2023/09/19 01:28:38;;;;;;;1.50;1.00;;;16.70;98.20;;;;;;4921241;29;20630;-82
2023/09/19 01:31:10;;;;;;;1.50;1.00;;;16.60;98.20;;;;;;4920441;28;20562;-81
2023/09/19 01:34:00;;;;;;;1.50;0.90;;;16.60;98.20;;;;;;4944164;29;20496;-83
2023/09/19 01:36:31;;;;;;;1.50;1.10;;;16.60;98.20;;;;;;4928814;28;20514;-83
2023/09/19 01:39:00;;;;;;;1.50;1.00;;;16.60;98.20;;;;;;4942327;29;20456;-81
2023/09/19 01:41:35;;;;;;;1.50;1.10;;;16.60;98.20;;;;;;4926361;28;20495;-83
2023/09/19 01:44:04;;;;;;;1.50;1.10;;;16.60;98.20;;;;;;4936178;29;20482;-82
2023/09/19 01:46:36;;;;;;;1.50;1.00;;;16.60;98.20;;;;;;4927867;28;20479;-83
2023/09/19 01:49:11;;;;;;;1.50;1.00;;;16.60;98.20;;;;;;4936917;29;20491;-83
2023/09/19 01:51:46;;;;;;;1.50;1.00;;;16.60;98.20;;;;;;4926966;28;20497;-82
2023/09/19 01:54:17;;;;;;;1.50;1.00;;;16.60;98.20;;;;;;4940315;29;20525;-83
2023/09/19 01:56:51;;;;;;;1.50;1.00;;;16.60;98.20;;;;;;4929935;28;20586;-83
2023/09/19 01:59:27;;;;;;;1.43;0.97;;;16.60;98.20;;;;;;4939490;29;20475;-82
2023/09/19 02:01:56;;;;;;;1.50;1.00;;;16.60;98.20;;;;;;4926856;29;20497;-84
2023/09/19 02:04:23;;;;;;;1.50;1.00;;;16.60;98.20;;;;;;4937871;29;20464;-81
2023/09/19 02:06:51;;;;;;;1.50;1.00;;;16.60;98.20;;;;;;4930346;28;20938;-83
2023/09/19 02:09:18;;;;;;;1.50;1.10;;;16.60;98.20;;;;;;4938100;29;20464;-83
2023/09/19 02:11:45;;;;;;;1.50;1.00;;;16.60;98.20;;;;;;4926714;29;20482;-81
2023/09/19 02:14:11;;;;;;;1.50;1.00;;;16.60;98.20;;;;;;4935901;29;20498;-83
2023/09/19 02:16:38;;;;;;;1.50;0.93;;;16.50;98.20;;;;;;4927127;29;20493;-83
2023/09/19 02:19:07;;;;;;;1.50;1.00;;;16.60;98.20;;;;;;4937967;29;20853;-83
2023/09/19 02:21:34;;;;;;;1.50;1.00;;;16.60;98.20;;;;;;4925737;28;20495;-83
2023/09/19 02:24:01;;;;;;;1.50;1.00;;;16.60;98.20;;;;;;4940014;29;20483;-82
2023/09/19 02:26:28;;;;;;;1.50;1.00;;;16.50;98.20;;;;;;4927268;28;20490;-81
2023/09/19 02:28:55;;;;;;;1.50;1.00;;;16.50;98.20;;;;;;4941549;29;20466;-83
2023/09/19 02:31:22;;;;;;;1.50;1.00;;;16.50;98.20;;;;;;4924059;28;20593;-80
2023/09/19 02:33:48;;;;;;;1.40;0.90;;;16.50;98.20;;;;;;4941660;28;20529;-81
2023/09/19 02:36:17;;;;;;;1.50;1.00;;;16.50;98.20;;;;;;4926736;28;20481;-82
2023/09/19 02:38:44;;;;;;;1.50;1.00;;;16.50;98.20;;;;;;4943328;29;20468;-82
2023/09/19 02:41:11;;;;;;;1.50;0.90;;;16.50;98.20;;;;;;4960897;23;20488;-80
2023/09/19 02:43:38;;;;;;;1.50;1.00;;;16.50;98.20;;;;;;4983743;28;20465;-79
2023/09/19 02:46:05;;;;;;;1.50;1.00;;;16.40;98.20;;;;;;4964170;28;20493;-78
2023/09/19 02:48:34;;;;;;;1.50;1.00;;;16.40;98.20;;;;;;4984907;28;20532;-79
2023/09/19 02:51:01;;;;;;;1.50;1.00;;;16.40;98.20;;;;;;4962352;28;20506;-79
2023/09/19 02:53:30;;;;;;;1.50;1.00;;;16.40;98.20;;;;;;4975714;28;20576;-78
2023/09/19 02:55:58;;;;;;;1.50;1.00;;;16.40;98.20;;;;;;4958706;28;20557;-78
2023/09/19 02:58:27;;;;;;;1.50;1.00;;;16.30;98.20;;;;;;4985634;28;21131;-79
2023/09/19 03:00:55;;;;;;;1.50;0.90;;;16.30;98.20;;;;;;4960268;28;20498;-78
2023/09/19 03:03:22;;;;;;;1.50;1.00;;;16.30;98.20;;;;;;4985637;28;20561;-79
2023/09/19 03:05:51;;;;;;;1.50;1.00;;;16.30;98.20;;;;;;4963402;28;20545;-79
2023/09/19 03:08:18;;;;;;;1.50;1.00;;;16.20;98.20;;;;;;4987083;28;20466;-78
2023/09/19 03:10:48;;;;;;;1.50;1.10;;;16.20;98.20;;;;;;4970089;28;20477;-79
2023/09/19 03:13:15;;;;;;;1.50;1.00;;;16.20;98.20;;;;;;4960315;28;20482;-80
2023/09/19 03:15:43;;;;;;;1.50;1.07;;;16.10;98.20;;;;;;4970758;28;20956;-79
2023/09/19 03:18:11;;;;;;;1.50;1.00;;;16.10;98.20;;;;;;4970373;28;20478;-78
2023/09/19 03:20:38;;;;;;;1.50;1.00;;;16.10;98.20;;;;;;4968169;28;20508;-77
2023/09/19 03:23:06;;;;;;;1.50;0.90;;;16.10;98.20;;;;;;4953543;28;20513;-78
2023/09/19 03:25:35;;;;;;;1.50;1.00;;;16.10;98.20;;;;;;4971179;28;20500;-78
2023/09/19 03:28:05;;;;;;;1.50;1.00;;;16.10;98.20;;;;;;4967514;28;20859;-79
2023/09/19 03:30:33;;;;;;;1.50;1.00;;;16.00;98.20;;;;;;4968408;28;21153;-80
2023/09/19 03:33:00;;;;;;;1.50;1.00;;;16.00;98.20;;;;;;4974863;28;20525;-80
2023/09/19 03:35:27;;;;;;;1.50;1.00;;;16.00;98.20;;;;;;4970361;28;20578;-79
2023/09/19 03:37:54;;;;;;;1.50;1.00;;;16.00;98.20;;;;;;4956131;28;20486;-80
2023/09/19 03:40:21;;;;;;;1.50;1.00;;;16.00;98.20;;;;;;4971881;28;20494;-81
2023/09/19 03:42:48;;;;;;;1.50;1.00;;;16.00;98.20;;;;;;4976602;28;20492;-80
2023/09/19 03:45:18;;;;;;;1.50;1.10;;;15.90;98.20;;;;;;4974227;28;20498;-80
2023/09/19 03:47:46;;;;;;;1.50;1.00;;;15.90;98.20;;;;;;4982609;28;20481;-80
2023/09/19 03:50:15;;;;;;;1.50;1.00;;;16.00;98.20;;;;;;4982615;28;20489;-80
2023/09/19 03:52:42;;;;;;;1.50;1.00;;;15.90;98.20;;;;;;4990806;28;20485;-78
2023/09/19 03:55:09;;;;;;;1.50;0.90;;;15.90;98.20;;;;;;4976608;28;20524;-80
2023/09/19 03:57:36;;;;;;;2.23;1.40;;;15.90;98.20;;;;;;4979364;28;20491;-80
2023/09/19 04:00:03;;;;;;;1.50;1.00;;;15.90;98.20;;;;;;4975944;28;20483;-79
2023/09/19 04:02:33;;;;;;;1.50;1.00;;;15.90;98.20;;;;;;4977648;28;20715;-78
2023/09/19 04:04:59;;;;;;;1.50;1.00;;;15.80;98.20;;;;;;4978163;28;20492;-80
2023/09/19 04:07:28;;;;;;;1.50;1.00;;;15.80;98.20;;;;;;4978710;28;20510;-80
2023/09/19 04:09:55;;;;;;;1.50;1.00;;;15.80;98.20;;;;;;4970939;28;20504;-80
2023/09/19 04:12:22;;;;;;;1.50;1.00;;;15.80;98.20;;;;;;4966644;28;20484;-80
2023/09/19 04:14:50;;;;;;;1.50;1.00;;;15.80;98.20;;;;;;4971591;28;21075;-79
2023/09/19 04:17:16;;;;;;;1.50;1.00;;;15.80;98.20;;;;;;4974265;28;20476;-81
2023/09/19 04:19:45;;;;;;;1.50;1.10;;;15.80;98.20;;;;;;4978229;28;20485;-82
2023/09/19 04:22:12;;;;;;;1.50;1.00;;;15.70;98.20;;;;;;4960669;28;20566;-79
2023/09/19 04:24:39;;;;;;;1.50;0.90;;;15.70;98.20;;;;;;4968279;28;20517;-78
2023/09/19 04:27:07;;;;;;;1.50;1.00;;;15.70;98.20;;;;;;4973997;28;20584;-80
2023/09/19 04:29:33;;;;;;;1.50;1.00;;;15.70;98.20;;;;;;4978897;28;21012;-79
2023/09/19 04:32:00;;;;;;;1.50;1.00;;;15.70;98.20;;;;;;4975492;28;20541;-81
2023/09/19 04:34:27;;;;;;;1.50;1.00;;;15.70;98.20;;;;;;4983582;28;20581;-80
2023/09/19 04:36:56;;;;;;;1.50;0.90;;;15.70;98.20;;;;;;4974364;28;20491;-80
2023/09/19 04:39:25;;;;;;;1.50;1.00;;;15.70;98.20;;;;;;4976615;28;20500;-81
2023/09/19 04:41:52;;;;;;;1.50;1.00;;;15.60;98.20;;;;;;4973321;28;20600;-82
2023/09/19 04:44:19;;;;;;;1.50;1.00;;;15.70;98.20;;;;;;4973726;28;20548;-81
2023/09/19 04:46:47;;;;;;;1.50;1.20;;;15.60;98.20;;;;;;4972683;28;20627;-81
2023/09/19 04:49:14;;;;;;;1.50;1.00;;;15.60;98.20;;;;;;4977619;28;21004;-80
2023/09/19 04:51:42;;;;;;;1.50;1.00;;;15.70;98.20;;;;;;4966887;28;20488;-81
2023/09/19 04:54:10;;;;;;;1.50;1.00;;;15.60;98.20;;;;;;4982494;28;20937;-81
2023/09/19 04:56:40;;;;;;;1.50;1.00;;;15.60;98.20;;;;;;4970959;28;20489;-80
2023/09/19 04:59:07;;;;;;;1.50;1.10;;;15.60;98.20;;;;;;4976097;28;20465;-80
2023/09/19 05:01:33;;;;;;;1.50;1.00;;;15.60;98.20;;;;;;4961750;28;20551;-78
2023/09/19 05:04:00;;;;;;;1.50;1.10;;;15.60;98.20;;;;;;4967618;28;20472;-79
2023/09/19 05:06:27;;;;;;;1.50;1.00;;;15.60;98.20;;;;;;4969030;28;21038;-79
2023/09/19 05:08:54;;;;;;;1.50;1.00;;;15.60;98.20;;;;;;4979327;28;20462;-78
2023/09/19 05:11:24;;;;;;;1.50;1.07;;;15.60;98.20;;;;;;4967764;28;20561;-78
2023/09/19 05:13:52;;;;;;;1.50;1.00;;;15.50;98.20;;;;;;4984688;28;20466;-79
2023/09/19 05:16:20;;;;;;;1.50;0.90;;;15.50;98.20;;;;;;4968497;28;20825;-79
2023/09/19 05:18:46;;;;;;;1.50;1.00;;;15.50;98.20;;;;;;4979180;28;20470;-79
2023/09/19 05:21:13;;;;;;;1.50;0.90;;;15.50;98.20;;;;;;4963287;28;20834;-79
2023/09/19 05:23:40;;;;;;;1.50;1.00;;;15.50;98.20;;;;;;4977214;28;20551;-77
2023/09/19 05:26:07;;;;;;;2.17;1.83;;;15.50;98.20;;;;;;4964430;28;20644;-81
2023/09/19 05:28:35;;;;;;;1.50;1.00;;;15.50;98.20;;;;;;4988885;28;20466;-77
2023/09/19 05:31:02;;;;;;;1.50;1.10;;;15.50;98.20;;;;;;4964876;28;20512;-78
2023/09/19 05:33:31;;;;;;;1.50;1.00;;;15.50;98.20;;;;;;4978415;28;20498;-78
2023/09/19 05:35:58;;;;;;;1.50;1.00;;;15.50;98.20;;;;;;4963833;28;21028;-78
2023/09/19 05:38:27;;;;;;;1.50;1.00;;;15.50;98.20;;;;;;4978544;28;20482;-80
2023/09/19 05:40:54;;;;;;;1.50;1.10;;;15.60;98.20;;;;;;4959156;28;20494;-78
2023/09/19 05:43:20;;;;;;;1.50;1.00;;;15.60;98.20;;;;;;4978113;28;20479;-78
2023/09/19 05:45:52;;;;;;;1.50;1.00;;;15.60;98.20;;;;;;4968321;28;20482;-79
2023/09/19 05:48:20;;;;;;;1.47;0.90;;;15.70;98.20;;;;;;4983279;28;20470;-78
2023/09/19 05:50:48;;;;;;;1.50;1.03;;;15.70;98.20;;;;;;4969302;28;20584;-81
2023/09/19 05:53:15;;;;;;;2.67;2.43;;;15.70;98.20;;;;;;4987486;28;20466;-77
2023/09/19 05:55:42;;;;;;;1.50;1.00;;;15.80;98.20;;;;;;4971463;28;20557;-79
2023/09/19 05:58:09;;;;;;;1.50;1.00;;;15.80;98.20;;;;;;4975921;28;20482;-82
2023/09/19 06:00:41;;;;;;;1.50;1.00;;;15.80;98.20;;;;;;4973286;28;21034;-81
2023/09/19 06:03:09;;;;;;;1.50;0.93;;;15.90;98.20;;;;;;4955239;28;20891;-79
2023/09/19 06:05:39;;;;;;;1.50;1.10;;;15.90;98.20;;;;;;4972883;28;20490;-80
2023/09/19 06:08:07;;;;;;;1.50;1.00;;;15.90;98.20;;;;;;4962115;28;20485;-81
2023/09/19 06:10:34;;;;;;;1.50;1.00;;;16.00;98.20;;;;;;4969150;28;20864;-80
2023/09/19 06:13:04;;;;;;;1.50;1.00;;;16.00;98.20;;;;;;4977497;28;20535;-81
2023/09/19 06:15:33;;;;;;;1.50;1.10;;;16.10;98.20;;;;;;4971922;28;20482;-79
2023/09/19 06:18:02;;;;;;;1.50;0.90;;;16.10;98.20;;;;;;4961137;28;20489;-80
2023/09/19 06:20:30;;;;;;;1.50;1.00;;;16.10;98.20;;;;;;4972799;28;20545;-81
2023/09/19 06:22:58;;;;;;;1.50;1.00;;;16.20;98.20;;;;;;4981066;28;20532;-79
2023/09/19 06:25:25;;;;;;;1.50;1.00;;;16.20;98.20;;;;;;4973734;28;20496;-79
2023/09/19 06:27:53;;;;;;;1.50;0.90;;;16.20;98.20;;;;;;4961853;28;20544;-81
2023/09/19 06:30:21;;;;;;;1.50;1.00;;;16.30;98.20;;;;;;4973956;28;20486;-79
2023/09/19 06:32:48;;;;;;;1.50;1.07;;;16.30;98.20;;;;;;4962364;28;20516;-81
2023/09/19 06:35:16;;;;;;;1.50;1.00;;;16.30;98.20;;;;;;4969551;28;20479;-80
2023/09/19 06:37:44;;;;;;;1.50;1.07;;;16.40;98.20;;;;;;4955459;28;20493;-77
2023/09/19 06:40:13;;;;;;;1.40;1.00;;;16.40;98.20;;;;;;4972092;28;20548;-79
2023/09/19 06:42:42;;;;;;;1.50;1.00;;;16.40;98.20;;;;;;4961592;28;20484;-80
2023/09/19 06:45:11;;;;;;;1.50;1.00;;;16.40;98.20;;;;;;4970357;28;20589;-79
2023/09/19 06:47:38;;;;;;;1.50;1.10;;;16.50;98.20;;;;;;4957038;28;20533;-80
2023/09/19 06:50:08;;;;;;;1.50;1.00;;;16.50;98.20;;;;;;4969325;28;21023;-79
2023/09/19 06:52:35;;;;;;;1.50;1.00;;;16.50;98.20;;;;;;4970775;28;20492;-79
2023/09/19 06:55:04;;;;;;;1.50;1.00;;;16.50;98.20;;;;;;4969751;28;20929;-80
2023/09/19 06:57:31;;;;;;;1.50;1.00;;;16.60;98.20;;;;;;4969424;28;20481;-78
2023/09/19 06:59:58;;;;;;;1.50;1.00;;;16.60;98.20;;;;;;4960405;28;20489;-78
2023/09/19 07:02:24;;;;;;;1.47;1.00;;;16.60;98.20;;;;;;4948607;28;20998;-78
2023/09/19 07:04:51;;;;;;;1.50;0.90;;;16.60;98.20;;;;;;4960265;28;21061;-78
2023/09/19 07:07:18;;;;;;;1.50;1.00;;;16.70;98.20;;;;;;4963757;28;20887;-77
2023/09/19 07:09:45;;;;;;;1.50;1.00;;;16.70;98.20;;;;;;4958439;28;20581;-81
2023/09/19 07:12:14;;;;;;;1.50;1.00;;;16.80;98.20;;;;;;4955584;28;20555;-77
2023/09/19 07:14:41;;;;;;;1.50;0.90;;;16.80;98.20;;;;;;4965919;28;21238;-78
2023/09/19 07:17:08;;;;;;;1.50;0.90;;;16.90;98.20;;;;;;4958818;28;20484;-78
2023/09/19 07:19:35;;;;;;;1.50;1.00;;;17.00;98.20;;;;;;4972020;28;20487;-78
2023/09/19 07:22:05;;;;;;;1.50;1.00;;;17.00;98.20;;;;;;4962156;28;20485;-78
2023/09/19 07:24:32;;;;;;;1.47;0.90;;;17.10;98.20;;;;;;4968481;28;20796;-77
2023/09/19 07:26:59;;;;;;;1.50;0.90;;;17.10;98.20;;;;;;4960160;28;20488;-78
2023/09/19 07:29:27;;;;;;;1.50;1.00;;;17.20;98.20;;;;;;4967750;28;20536;-78
2023/09/19 07:31:54;;;;;;;1.50;1.00;;;17.20;98.20;;;;;;4962053;28;20564;-80
2023/09/19 07:34:22;;;;;;;1.50;0.93;;;17.30;98.20;;;;;;4970888;28;20472;-78
2023/09/19 07:36:49;;;;;;;1.50;1.00;;;17.40;98.20;;;;;;4963500;28;20487;-78
2023/09/19 07:39:17;;;;;;;1.50;0.90;;;17.50;98.20;;;;;;4971290;28;20952;-81
2023/09/19 07:41:44;;;;;;;1.50;1.00;;;17.60;98.20;;;;;;4965002;28;20489;-78
2023/09/19 07:44:10;;;;;;;1.50;1.00;;;17.70;98.20;;;;;;4974453;28;20974;-78
2023/09/19 07:46:39;;;;;;;1.50;1.00;;;17.80;98.20;;;;;;4961361;28;20496;-79
2023/09/19 07:49:06;;;;;;;1.50;0.90;;;17.90;98.20;;;;;;4965830;28;20557;-79
2023/09/19 07:51:33;;;;;;;1.47;0.90;;;18.00;98.20;;;;;;4956720;28;20495;-79
2023/09/19 07:54:00;;;;;;;1.50;0.90;;;18.10;98.20;;;;;;4965907;28;20465;-79
2023/09/19 07:56:27;;;;;;;1.50;0.90;;;18.20;98.20;;;;;;4957919;28;20891;-80
2023/09/19 07:58:54;;;;;;;1.50;1.00;;;18.30;98.20;;;;;;4967209;28;20462;-79
2023/09/19 08:01:23;;;;;;;1.50;1.00;;;18.40;98.20;;;;;;4952038;28;20854;-77
2023/09/19 08:03:52;;;;;;;1.50;1.00;;;18.40;98.20;;;;;;4968892;28;20557;-79
2023/09/19 08:06:20;;;;;;;1.50;1.00;;;18.50;98.20;;;;;;4952482;28;20987;-78
2023/09/19 08:08:47;;;;;;;1.50;1.00;;;18.60;98.20;;;;;;4973321;28;20469;-78
2023/09/19 08:11:21;;;;;;;1.50;0.90;;;18.70;98.20;;;;;;4954805;28;20489;-77
2023/09/19 08:13:49;;;;;;;1.50;0.90;;;18.70;98.20;;;;;;4966666;28;21041;-77
2023/09/19 08:16:17;;;;;;;1.50;0.90;;;18.80;98.20;;;;;;4953958;28;20481;-77
2023/09/19 08:18:48;;;;;;;1.50;1.00;;;18.80;98.20;;;;;;4970764;28;20473;-77
2023/09/19 08:21:16;;;;;;;1.50;1.00;;;18.90;98.20;;;;;;4958828;28;20489;-77
2023/09/19 08:23:43;;;;;;;1.50;1.00;;;19.00;98.20;;;;;;4974768;28;20463;-77
2023/09/19 08:26:10;;;;;;;1.50;1.00;;;19.10;98.20;;;;;;4959056;28;20481;-78
2023/09/19 08:28:40;;;;;;;1.50;0.90;;;19.10;98.20;;;;;;4975012;28;20556;-77
2023/09/19 08:31:08;;;;;;;1.50;0.90;;;19.10;98.20;;;;;;4959806;28;21358;-77
2023/09/19 08:33:36;;;;;;;1.50;0.90;;;19.20;98.20;;;;;;4977100;28;20458;-79
2023/09/19 08:36:04;;;;;;;1.50;0.90;;;19.30;98.20;;;;;;4956795;28;20851;-78
2023/09/19 08:38:34;;;;;;;1.50;1.00;;;19.30;98.20;;;;;;4968591;28;20478;-78
2023/09/19 08:41:05;;;;;;;1.50;1.00;;;19.40;98.20;;;;;;4949058;28;20487;-79
2023/09/19 08:43:34;;;;;;;1.50;0.90;;;19.50;98.20;;;;;;4971562;28;20469;-77
2023/09/19 08:46:11;;;;;;;1.50;0.90;;;19.60;98.20;;;;;;4951216;28;20862;-78
2023/09/19 08:48:40;;;;;;;1.50;1.10;;;19.60;98.20;;;;;;4971437;28;20470;-78
2023/09/19 08:51:11;;;;;;;1.50;0.90;;;19.80;98.20;;;;;;4951711;28;20491;-78
2023/09/19 08:53:46;;;;;;;1.50;0.90;;;19.80;98.20;;;;;;4974153;28;20477;-78
2023/09/19 08:56:15;;;;;;;1.50;0.90;;;19.90;98.20;;;;;;4959938;28;20503;-78
2023/09/19 08:58:47;;;;;;;1.50;0.90;;;20.00;98.20;;;;;;4974783;28;20606;-78
2023/09/19 09:01:16;;;;;;;1.50;0.90;;;20.10;98.20;;;;;;4963061;28;20473;-80
2023/09/19 09:03:46;;;;;;;1.50;0.90;;;20.20;98.20;;;;;;4981205;28;20479;-77
2023/09/19 09:06:16;;;;;;;1.50;0.90;;;20.30;98.20;;;;;;4960441;28;20620;-78
2023/09/19 09:08:45;;;;;;;1.50;0.90;;;20.40;98.20;;;;;;4967141;28;20467;-77
2023/09/19 09:11:12;;;;;;;1.50;0.90;;;20.50;98.20;;;;;;4949108;28;20481;-80
2023/09/19 09:13:41;;;;;;;1.50;0.90;;;20.60;98.20;;;;;;4970348;28;20949;-78
2023/09/19 09:16:08;;;;;;;1.50;0.90;;;20.70;98.20;;;;;;4950650;28;20487;-79
2023/09/19 09:18:35;;;;;;;1.50;0.90;;;20.80;97.70;;;;;;4971342;28;20477;-77
2023/09/19 09:21:02;;;;;;;1.50;0.90;;;20.90;97.50;;;;;;4949539;28;20494;-77
2023/09/19 09:23:30;;;;;;;1.47;0.90;;;20.80;96.80;;;;;;4974063;28;20478;-76
2023/09/19 09:26:02;;;;;;;1.50;0.90;;;20.80;95.70;;;;;;4950467;28;20481;-75
2023/09/19 09:28:30;;;;;;;1.50;0.90;;;20.80;95.30;;;;;;4970863;28;20502;-78
2023/09/19 09:30:58;;;;;;;1.50;0.90;;;20.90;96.20;;;;;;4954190;28;21007;-77
2023/09/19 09:33:26;;;;;;;1.50;0.90;;;21.00;96.80;;;;;;4969528;28;20469;-78
2023/09/19 09:35:56;;;;;;;1.47;0.90;;;21.10;95.70;;;;;;4956208;28;20462;-79
2023/09/19 09:38:27;;;;;;;1.50;0.90;;;21.20;97.10;;;;;;4977626;28;20571;-79
2023/09/19 09:41:01;;;;;;;1.60;1.37;;;21.40;95.40;;;;;;4956014;28;20502;-78
2023/09/19 09:43:34;;;;;;;1.50;0.90;;;21.50;93.10;;;;;;4979249;28;20984;-80
2023/09/19 09:46:18;;;;;;;1.50;0.90;;;21.60;93.10;;;;;;4957313;28;20490;-78
2023/09/19 09:49:14;;;;;;;1.70;1.60;;;21.70;92.90;;;;;;4974606;28;20943;-81
2023/09/19 09:51:42;;;;;;;1.50;0.90;;;21.80;92.70;;;;;;4958990;28;20559;-80
2023/09/19 09:54:14;;;;;;;1.50;0.90;;;21.80;92.70;;;;;;4966881;28;20578;-80
2023/09/19 09:56:54;;;;;;;1.50;0.90;;;22.00;91.70;;;;;;4961363;28;20498;-79
2023/09/19 09:59:23;;;;;;;1.47;0.90;;;22.00;91.70;;;;;;4974359;28;20513;-78
2023/09/19 10:01:53;;;;;;;1.50;0.90;;;22.00;91.60;;;;;;4966181;28;20489;-79
2023/09/19 10:04:31;;;;;;;1.47;0.90;;;22.10;91.50;;;;;;4969658;28;20457;-79
2023/09/19 10:07:04;;;;;;;2.77;2.03;;;22.20;91.70;;;;;;4964595;28;20576;-79
2023/09/19 10:09:36;;;;;;;1.43;0.90;;;22.20;91.90;;;;;;4965454;28;20525;-80
2023/09/19 10:12:08;;;;;;;1.47;0.90;;;22.20;92.00;;;;;;4963509;28;20489;-80
2023/09/19 10:14:39;;;;;;;1.47;0.90;;;22.40;90.10;;;;;;4968039;28;20477;-80
2023/09/19 10:17:08;;;;;;;1.50;0.90;;;22.40;90.20;;;;;;4963420;28;20489;-80
2023/09/19 10:19:46;;;;;;;1.50;0.90;;;22.40;90.90;;;;;;4974667;28;20551;-81
2023/09/19 10:22:16;;;;;;;1.50;0.87;;;22.50;90.30;;;;;;4964063;28;20582;-80
2023/09/19 10:24:46;;;;;;;1.47;0.90;;;22.70;90.20;;;;;;4965194;28;20474;-78
2023/09/19 10:27:16;;;;;;;1.47;0.90;;;22.80;89.40;;;;;;4959366;28;20481;-78
2023/09/19 10:29:59;;;;;;;1.50;0.90;;;22.80;88.10;;;;;;4968561;28;20479;-79
2023/09/19 10:32:29;;;;;;;1.50;0.90;;;22.80;86.90;;;;;;4964083;28;20817;-81
2023/09/19 10:34:58;;;;;;;1.50;1.00;;;22.60;88.70;;;;;;4962817;28;21310;-80
2023/09/19 10:37:27;;;;;;;1.47;0.90;;;22.50;89.20;;;;;;4964343;28;20945;-81
2023/09/19 10:39:57;;;;;;;1.50;0.90;;;22.40;89.30;;;;;;4963758;28;20509;-79
2023/09/19 10:42:28;;;;;;;1.47;0.90;;;22.30;89.20;;;;;;4967359;28;20488;-82
2023/09/19 10:45:00;;;;;;;1.47;0.90;;;22.40;91.50;;;;;;4965440;28;20477;-81
2023/09/19 10:47:27;;;;;;;1.50;0.90;;;22.50;90.80;;;;;;4965028;28;20496;-83
2023/09/19 10:49:54;;;;;;;1.47;0.90;;;22.50;88.50;;;;;;4966337;28;20493;-81
2023/09/19 10:52:24;;;;;;;1.43;0.90;;;22.50;88.80;;;;;;4964325;28;20530;-77
2023/09/19 10:54:54;;;;;;;1.47;0.90;;;22.50;89.80;;;;;;4965669;28;20473;-79
2023/09/19 10:57:23;;;;;;;1.47;0.90;;;22.60;89.10;;;;;;4965095;28;20593;-77
2023/09/19 11:00:21;;;;;;;1.47;0.90;;;22.50;88.30;;;;;;4963636;28;20589;-78
2023/09/19 11:03:20;;;;;;;1.47;0.83;;;22.40;89.60;;;;;;4962715;28;20481;-78
2023/09/19 11:06:05;;;;;;;1.50;0.90;;;22.40;91.00;;;;;;4953502;28;20467;-79
2023/09/19 11:08:51;;;;;;;1.43;0.90;;;22.50;89.70;;;;;;4969192;28;20506;-79
2023/09/19 11:11:43;;;;;;;1.47;0.83;;;22.60;89.90;;;;;;4953107;28;20898;-78
2023/09/19 11:14:29;;;;;;;1.50;0.90;;;22.70;89.00;;;;;;4965710;28;20471;-80
2023/09/19 11:17:47;;;;;;;1.50;1.00;;;22.80;89.10;;;;;;4959006;28;20491;-81
2023/09/19 11:20:35;;;;;;;1.50;0.90;;;22.90;87.20;;;;;;4948257;28;20553;-79
2023/09/19 11:23:26;;;;;;;1.50;0.90;;;22.90;87.10;;;;;;4968466;28;20485;-78
2023/09/19 11:25:54;;;;;;;1.50;0.90;;;23.00;87.00;;;;;;4957314;28;20498;-78
2023/09/19 11:28:35;;;;;;;1.50;0.90;;;23.10;88.30;;;;;;4979270;28;20500;-79
2023/09/19 11:31:36;;;;;;;1.50;0.90;;;23.30;86.90;;;;;;4953712;28;20482;-77
2023/09/19 11:34:36;;;;;;;1.50;0.90;;;23.40;87.20;;;;;;4971794;28;20458;-79
2023/09/19 11:37:27;;;;;;;1.43;0.90;;;23.50;85.70;;;;;;4956504;28;21014;-79
2023/09/19 11:40:15;;;;;;;1.43;0.90;;;23.50;85.90;;;;;;4966566;28;21059;-76
2023/09/19 11:42:44;;;;;;;1.47;0.90;;;23.70;86.20;;;;;;4965364;28;20532;-76
2023/09/19 11:46:01;;;;;;;1.47;0.90;;;23.70;84.80;;;;;;4960304;28;20462;-77
2023/09/19 11:48:28;;;;;;;1.47;0.90;;;23.70;85.60;;;;;;4908272;29;20535;-77
2023/09/19 11:50:57;;;;;;;1.47;0.90;;;23.80;85.70;;;;;;4905117;29;20554;-77
2023/09/19 11:53:32;;;;;;;1.43;0.80;;;23.90;83.40;;;;;;4937643;28;20505;-78
2023/09/19 11:56:00;;;;;;;1.47;0.90;;;24.00;82.70;;;;;;4953715;28;22627;-78
2023/09/19 11:58:29;;;;;;;1.47;0.90;;;24.00;82.20;;;;;;4968798;28;20493;-78
2023/09/19 12:00:58;;;;;;;1.47;0.83;;;24.10;82.20;;;;;;4947152;28;20483;-78
2023/09/19 12:03:30;;;;;;;1.50;0.90;;;24.10;81.90;;;;;;4964196;28;20828;-77
2023/09/19 12:05:58;;;;;;;1.47;0.87;;;24.10;80.20;;;;;;4951646;28;20462;-78
2023/09/19 12:08:27;;;;;;;1.50;0.90;;;24.20;81.20;;;;;;4974832;28;20469;-77
2023/09/19 12:10:54;;;;;;;1.50;0.90;;;24.20;79.00;;;;;;4952583;28;20491;-78
2023/09/19 12:13:22;;;;;;;1.47;0.90;;;24.10;80.30;;;;;;4980948;28;20466;-78
2023/09/19 12:15:49;;;;;;;2.07;1.47;;;24.20;80.90;;;;;;4951781;28;20474;-78
2023/09/19 12:18:29;;;;;;;1.50;0.90;;;24.20;81.10;;;;;;4980506;28;20868;-77
2023/09/19 12:20:57;;;;;;;1.47;0.90;;;24.40;81.70;;;;;;4955500;28;21117;-79
2023/09/19 12:23:25;;;;;;;1.50;0.80;;;24.40;79.90;;;;;;4975822;28;20474;-78
2023/09/19 12:25:56;;;;;;;1.47;0.90;;;24.40;79.00;;;;;;4952107;28;20520;-78
2023/09/19 12:28:26;;;;;;;1.50;0.90;;;24.50;79.00;;;;;;4972136;28;20470;-78
2023/09/19 12:30:55;;;;;;;1.50;0.90;;;24.50;79.50;;;;;;4951377;28;20482;-76
2023/09/19 12:33:24;;;;;;;1.50;0.90;;;24.60;78.40;;;;;;4971714;28;20463;-78
2023/09/19 12:35:53;;;;;;;1.43;0.90;;;24.60;78.50;;;;;;4950527;28;20484;-78
2023/09/19 12:38:29;;;;;;;1.43;0.90;;;24.70;79.40;;;;;;4972519;28;20970;-77
2023/09/19 12:44:18;;;;;;;1.47;0.90;;;24.70;77.50;;;;;;4956801;28;20473;-76
2023/09/19 12:46:45;;;;;;;1.50;0.80;;;24.70;77.20;;;;;;4959131;28;20508;-78
2023/09/19 12:49:19;;;;;;;1.43;0.90;;;24.70;77.70;;;;;;4965637;28;20880;-78
2023/09/19 12:51:47;;;;;;;1.70;1.57;;;24.70;77.20;;;;;;4962401;28;20485;-76
2023/09/19 12:54:15;;;;;;;1.50;0.90;;;24.70;77.60;;;;;;4965820;28;20477;-77
2023/09/19 12:56:45;;;;;;;1.40;0.90;;;24.70;76.90;;;;;;4958022;28;20469;-77
2023/09/19 12:59:16;;;;;;;1.47;0.90;;;24.70;77.30;;;;;;4971017;28;20459;-78
2023/09/19 13:01:46;;;;;;;1.43;0.80;;;24.70;76.90;;;;;;4959162;28;20894;-76
2023/09/19 13:04:15;;;;;;;1.50;0.87;;;24.70;76.60;;;;;;4963565;28;20905;-77
2023/09/19 13:06:43;;;;;;;1.47;0.80;;;24.60;76.60;;;;;;4952525;28;20478;-77